createdAt,value
2017-08-08T06:46:28.403Z,67.50
2017-08-08T06:46:28.909Z,67.50
2017-08-08T06:46:29.421Z,67.50
2017-08-08T06:46:29.935Z,67.50
2017-08-08T06:46:30.443Z,67.50
2017-08-08T06:46:30.964Z,67.50
2017-08-08T06:46:31.472Z,67.50
2017-08-08T06:46:31.985Z,67.50
2017-08-08T06:46:32.491Z,67.50
2017-08-08T07:01:03.935Z,78.75
2017-08-08T07:01:04.442Z,78.75
2017-08-08T07:01:04.951Z,78.75
2017-08-08T07:01:05.463Z,78.75
2017-08-08T07:01:05.979Z,78.75
2017-08-08T07:01:06.495Z,78.75
2017-08-08T07:01:07.007Z,78.75
2017-08-08T07:01:07.515Z,78.75
2017-08-08T07:01:08.031Z,78.75
2017-08-08T07:02:02.380Z,67.50
2017-08-08T07:02:02.887Z,67.50
2017-08-08T07:02:03.398Z,67.50
2017-08-08T07:02:03.912Z,67.50
2017-08-08T07:02:04.426Z,67.50
2017-08-08T07:02:04.935Z,67.50
2017-08-08T07:02:05.449Z,67.50
2017-08-08T07:02:05.961Z,67.50
2017-08-08T07:02:06.474Z,67.50
2017-08-08T07:02:06.984Z,67.50
2017-08-08T07:03:00.951Z,67.50
2017-08-08T07:03:01.466Z,67.50
2017-08-08T07:03:01.975Z,67.50
2017-08-08T07:03:02.485Z,67.50
2017-08-08T07:03:02.996Z,67.50
2017-08-08T07:03:03.510Z,67.50
2017-08-08T07:03:04.025Z,67.50
2017-08-08T07:03:04.532Z,67.50
2017-08-08T07:03:05.047Z,67.50
2017-08-08T12:28:43.969Z,196.88
2017-08-08T12:28:44.480Z,196.88
2017-08-08T12:28:44.997Z,196.88
2017-08-08T12:28:45.508Z,196.88
2017-08-08T12:28:46.019Z,196.88
2017-08-08T12:28:46.549Z,196.88
2017-08-08T12:28:47.044Z,196.88
2017-08-08T12:28:47.565Z,196.88
2017-08-08T12:28:48.071Z,196.88
2017-08-08T12:30:02.516Z,112.50
2017-08-08T12:30:03.025Z,112.50
2017-08-08T12:30:03.532Z,112.50
2017-08-08T12:30:04.045Z,112.50
2017-08-08T12:30:04.560Z,112.50
2017-08-08T12:30:05.075Z,112.50
2017-08-08T12:30:05.588Z,112.50
2017-08-08T12:30:06.101Z,112.50
2017-08-08T12:30:06.612Z,112.50
2017-08-08T12:31:01.068Z,112.50
2017-08-08T12:31:01.566Z,112.50
2017-08-08T12:31:02.080Z,112.50
2017-08-08T12:31:02.587Z,112.50
2017-08-08T12:31:03.104Z,112.50
2017-08-08T12:31:03.611Z,112.50
2017-08-08T12:31:04.125Z,112.50
2017-08-08T12:31:04.638Z,112.50
2017-08-08T12:31:05.161Z,112.50
2017-08-08T12:31:59.537Z,112.50
2017-08-08T12:32:00.036Z,112.50
2017-08-08T12:32:00.545Z,112.50
2017-08-08T12:32:01.056Z,112.50
2017-08-08T12:32:01.569Z,112.50
2017-08-08T12:32:02.083Z,112.50
2017-08-08T12:32:02.598Z,112.50
2017-08-08T12:32:03.110Z,112.50
2017-08-08T12:32:03.619Z,112.50
2017-08-08T12:38:01.954Z,101.25
2017-08-08T12:38:02.469Z,101.25
2017-08-08T12:38:02.975Z,101.25
2017-08-08T12:38:03.484Z,101.25
2017-08-08T12:38:03.994Z,101.25
2017-08-08T12:38:04.507Z,101.25
2017-08-08T12:38:05.021Z,101.25
2017-08-08T12:38:05.535Z,101.25
2017-08-08T12:38:06.049Z,101.25
2017-08-08T12:45:08.250Z,191.25
2017-08-08T12:45:08.755Z,191.25
2017-08-08T12:45:09.267Z,191.25
2017-08-08T12:45:09.783Z,191.25
2017-08-08T12:45:10.300Z,191.25
2017-08-08T12:45:10.817Z,191.25
2017-08-08T12:45:11.326Z,191.25
2017-08-08T12:45:11.837Z,191.25
2017-08-08T12:45:12.346Z,191.25
2017-08-08T12:46:05.792Z,196.88
2017-08-08T12:46:06.312Z,196.88
2017-08-08T12:46:06.829Z,196.88
2017-08-08T12:46:07.350Z,196.88
2017-08-08T12:46:07.860Z,196.88
2017-08-08T12:46:08.388Z,196.88
2017-08-08T12:46:08.948Z,196.88
2017-08-08T12:46:09.403Z,196.88
2017-08-08T12:46:09.918Z,196.88
2017-08-08T12:47:03.319Z,196.88
2017-08-08T12:47:03.831Z,196.88
2017-08-08T12:47:04.346Z,196.88
2017-08-08T12:47:04.859Z,196.88
2017-08-08T12:47:05.368Z,196.88
2017-08-08T12:47:05.881Z,202.50
2017-08-08T12:47:06.390Z,196.88
2017-08-08T12:47:06.909Z,196.88
2017-08-08T12:47:07.427Z,196.88
2017-08-08T12:48:20.843Z,191.25
2017-08-08T12:48:21.355Z,191.25
2017-08-08T12:48:21.859Z,191.25
2017-08-08T12:48:22.370Z,191.25
2017-08-08T12:48:22.888Z,191.25
2017-08-08T12:48:23.391Z,191.25
2017-08-08T12:48:23.911Z,191.25
2017-08-08T12:48:24.422Z,191.25
2017-08-08T12:48:24.931Z,191.25
2017-08-08T12:49:39.380Z,157.50
2017-08-08T12:49:39.884Z,157.50
2017-08-08T12:49:40.393Z,157.50
2017-08-08T12:49:40.904Z,157.50
2017-08-08T12:49:41.426Z,157.50
2017-08-08T12:49:41.934Z,157.50
2017-08-08T12:49:42.447Z,151.88
2017-08-08T12:49:42.981Z,157.50
2017-08-08T12:49:43.490Z,151.88
2017-08-08T12:50:37.889Z,151.88
2017-08-08T12:50:38.400Z,151.88
2017-08-08T12:50:38.912Z,151.88
2017-08-08T12:50:39.421Z,151.88
2017-08-08T12:50:39.936Z,157.50
2017-08-08T12:50:40.439Z,157.50
2017-08-08T12:50:40.953Z,157.50
2017-08-08T12:50:41.469Z,157.50
2017-08-08T12:50:41.978Z,151.88
2017-08-08T12:51:55.373Z,146.25
2017-08-08T12:51:55.884Z,146.25
2017-08-08T12:51:56.396Z,146.25
2017-08-08T12:51:56.903Z,146.25
2017-08-08T12:51:57.417Z,146.25
2017-08-08T12:51:57.929Z,146.25
2017-08-08T12:51:58.444Z,146.25
2017-08-08T12:51:58.958Z,146.25
2017-08-08T12:51:59.470Z,146.25
2017-08-08T12:55:09.833Z,151.88
2017-08-08T12:55:10.421Z,151.88
2017-08-08T12:55:11.028Z,151.88
2017-08-08T12:55:11.620Z,151.88
2017-08-08T12:55:12.220Z,151.88
2017-08-08T12:55:12.825Z,151.88
2017-08-08T12:55:13.428Z,151.88
2017-08-08T12:55:14.023Z,151.88
2017-08-08T12:56:07.510Z,146.25
2017-08-08T12:56:08.081Z,146.25
2017-08-08T12:56:08.676Z,146.25
2017-08-08T12:56:09.276Z,146.25
2017-08-08T12:56:09.880Z,146.25
2017-08-08T12:56:10.479Z,151.88
2017-08-08T12:56:11.075Z,151.88
2017-08-08T12:56:11.672Z,151.88
2017-08-08T12:57:06.158Z,146.25
2017-08-08T12:57:06.748Z,146.25
2017-08-08T12:57:07.351Z,146.25
2017-08-08T12:57:07.956Z,146.25
2017-08-08T12:57:08.548Z,146.25
2017-08-08T12:57:09.155Z,146.25
2017-08-08T12:57:09.749Z,146.25
2017-08-08T12:57:10.351Z,146.25
2017-08-08T12:58:03.811Z,146.25
2017-08-08T12:58:04.409Z,146.25
2017-08-08T12:58:05.004Z,146.25
2017-08-08T12:58:05.607Z,146.25
2017-08-08T12:58:06.207Z,146.25
2017-08-08T12:58:06.807Z,146.25
2017-08-08T12:58:07.409Z,146.25
2017-08-08T12:58:08.004Z,146.25
2017-08-08T12:59:01.464Z,0.00
2017-08-08T12:59:02.054Z,0.00
2017-08-08T12:59:02.654Z,0.00
2017-08-08T12:59:03.257Z,0.00
2017-08-08T12:59:03.855Z,0.00
2017-08-08T12:59:04.454Z,0.00
2017-08-08T12:59:05.053Z,0.00
2017-08-08T12:59:05.650Z,0.00
2017-08-08T13:00:00.134Z,151.88
2017-08-08T13:00:00.731Z,151.88
2017-08-08T13:00:01.339Z,151.88
2017-08-08T13:00:01.932Z,151.88
2017-08-08T13:00:02.529Z,151.88
2017-08-08T13:00:03.127Z,151.88
2017-08-08T13:00:03.735Z,151.88
2017-08-08T13:00:04.328Z,151.88
2017-08-08T13:00:57.784Z,151.88
2017-08-08T13:00:58.385Z,151.88
2017-08-08T13:00:58.985Z,151.88
2017-08-08T13:00:59.582Z,151.88
2017-08-08T13:01:00.180Z,151.88
2017-08-08T13:01:00.793Z,151.88
2017-08-08T13:01:01.389Z,151.88
2017-08-08T13:01:01.987Z,151.88
2017-08-08T13:01:56.488Z,151.88
2017-08-08T13:01:57.059Z,151.88
2017-08-08T13:01:57.655Z,151.88
2017-08-08T13:01:58.261Z,151.88
2017-08-08T13:01:58.858Z,151.88
2017-08-08T13:01:59.462Z,151.88
2017-08-08T13:02:00.059Z,151.88
2017-08-08T13:02:00.664Z,151.88
2017-08-08T13:02:55.142Z,157.50
2017-08-08T13:02:55.737Z,157.50
2017-08-08T13:02:56.339Z,157.50
2017-08-08T13:02:56.935Z,157.50
2017-08-08T13:02:57.534Z,157.50
2017-08-08T13:02:58.141Z,157.50
2017-08-08T13:02:58.732Z,157.50
2017-08-08T13:02:59.338Z,157.50
2017-08-08T13:03:52.794Z,157.50
2017-08-08T13:03:53.388Z,157.50
2017-08-08T13:03:54.013Z,157.50
2017-08-08T13:03:54.586Z,157.50
2017-08-08T13:03:55.187Z,157.50
2017-08-08T13:03:55.786Z,157.50
2017-08-08T13:03:56.386Z,157.50
2017-08-08T13:03:56.983Z,157.50
2017-08-08T13:04:51.464Z,157.50
2017-08-08T13:04:52.065Z,157.50
2017-08-08T13:04:52.660Z,157.50
2017-08-08T13:04:53.265Z,157.50
2017-08-08T13:04:53.865Z,157.50
2017-08-08T13:04:54.465Z,157.50
2017-08-08T13:04:55.066Z,157.50
2017-08-08T13:04:55.659Z,157.50
2017-08-08T13:05:50.143Z,151.88
2017-08-08T13:05:50.735Z,151.88
2017-08-08T13:05:51.338Z,151.88
2017-08-08T13:05:51.935Z,151.88
2017-08-08T13:05:52.538Z,151.88
2017-08-08T13:05:53.161Z,157.50
2017-08-08T13:05:53.740Z,157.50
2017-08-08T13:05:54.342Z,157.50
2017-08-08T13:06:48.813Z,151.88
2017-08-08T13:06:49.417Z,151.88
2017-08-08T13:06:50.013Z,151.88
2017-08-08T13:06:50.611Z,151.88
2017-08-08T13:06:51.213Z,151.88
2017-08-08T13:06:51.814Z,151.88
2017-08-08T13:06:52.430Z,151.88
2017-08-08T13:06:53.017Z,151.88
2017-08-08T13:07:48.048Z,151.88
2017-08-08T13:07:49.570Z,151.88
2017-08-08T13:07:50.064Z,151.88
2017-08-08T13:07:50.659Z,151.88
2017-08-08T13:07:51.255Z,151.88
2017-08-08T13:07:51.865Z,151.88
2017-08-08T13:08:46.377Z,146.25
2017-08-08T13:08:46.973Z,146.25
2017-08-08T13:08:47.572Z,146.25
2017-08-08T13:08:48.171Z,146.25
2017-08-08T13:08:48.769Z,146.25
2017-08-08T13:08:49.376Z,146.25
2017-08-08T13:08:49.966Z,146.25
2017-08-08T13:08:50.572Z,146.25
2017-08-08T13:09:45.046Z,146.25
2017-08-08T13:09:45.650Z,146.25
2017-08-08T13:09:46.246Z,146.25
2017-08-08T13:09:46.848Z,146.25
2017-08-08T13:09:47.449Z,146.25
2017-08-08T13:09:48.048Z,146.25
2017-08-08T13:09:48.645Z,146.25
2017-08-08T13:09:49.246Z,146.25
2017-08-08T13:10:43.725Z,140.63
2017-08-08T13:10:44.321Z,140.63
2017-08-08T13:10:44.923Z,140.63
2017-08-08T13:10:45.522Z,140.63
2017-08-08T13:10:46.121Z,140.63
2017-08-08T13:10:46.728Z,140.63
2017-08-08T13:10:47.319Z,140.63
2017-08-08T13:10:47.925Z,140.63
2017-08-08T13:11:41.892Z,140.63
2017-08-08T13:11:42.491Z,140.63
2017-08-08T13:11:43.085Z,140.63
2017-08-08T13:11:43.685Z,140.63
2017-08-08T13:11:44.285Z,140.63
2017-08-08T13:11:44.884Z,140.63
2017-08-08T13:11:45.496Z,140.63
2017-08-08T13:12:39.952Z,140.63
2017-08-08T13:12:40.544Z,140.63
2017-08-08T13:12:41.149Z,140.63
2017-08-08T13:12:41.743Z,140.63
2017-08-08T13:12:42.343Z,140.63
2017-08-08T13:12:42.950Z,140.63
2017-08-08T13:12:43.547Z,140.63
2017-08-08T13:12:44.143Z,140.63
2017-08-08T13:13:37.740Z,146.25
2017-08-08T13:13:38.303Z,146.25
2017-08-08T13:13:38.902Z,146.25
2017-08-08T13:13:39.506Z,146.25
2017-08-08T13:13:40.197Z,146.25
2017-08-08T13:13:40.751Z,146.25
2017-08-08T13:13:41.401Z,146.25
2017-08-08T13:13:41.914Z,146.25
2017-08-08T13:15:32.398Z,146.25
2017-08-08T13:15:32.993Z,146.25
2017-08-08T13:15:33.597Z,146.25
2017-08-08T13:15:34.187Z,146.25
2017-08-08T13:15:34.797Z,146.25
2017-08-08T13:15:35.395Z,140.63
2017-08-08T13:15:35.987Z,146.25
2017-08-08T13:15:36.590Z,140.63
2017-08-08T13:16:31.580Z,146.25
2017-08-08T13:16:32.174Z,146.25
2017-08-08T13:16:32.781Z,146.25
2017-08-08T13:16:33.374Z,146.25
2017-08-08T13:16:33.973Z,146.25
2017-08-08T13:16:34.572Z,146.25
2017-08-08T13:16:35.181Z,146.25
2017-08-08T13:17:28.721Z,140.63
2017-08-08T13:17:29.314Z,140.63
2017-08-08T13:17:29.921Z,140.63
2017-08-08T13:17:30.515Z,140.63
2017-08-08T13:17:31.116Z,140.63
2017-08-08T13:17:31.721Z,140.63
2017-08-08T13:17:32.317Z,140.63
2017-08-08T13:17:32.921Z,140.63
2017-08-08T13:18:26.480Z,140.63
2017-08-08T13:18:27.069Z,140.63
2017-08-08T13:18:27.672Z,140.63
2017-08-08T13:18:28.276Z,140.63
2017-08-08T13:18:28.872Z,140.63
2017-08-08T13:18:29.472Z,140.63
2017-08-08T13:18:30.068Z,140.63
2017-08-08T13:18:30.671Z,140.63
2017-08-08T13:19:24.263Z,140.63
2017-08-08T13:19:24.824Z,140.63
2017-08-08T13:19:25.426Z,140.63
2017-08-08T13:19:26.024Z,140.63
2017-08-08T13:19:26.627Z,140.63
2017-08-08T13:19:27.229Z,140.63
2017-08-08T13:19:27.826Z,140.63
2017-08-08T13:19:28.423Z,140.63
2017-08-08T13:20:21.881Z,140.63
2017-08-08T13:20:22.489Z,140.63
2017-08-08T13:20:23.076Z,140.63
2017-08-08T13:20:23.682Z,140.63
2017-08-08T13:20:24.277Z,140.63
2017-08-08T13:20:24.876Z,140.63
2017-08-08T13:20:25.479Z,140.63
2017-08-08T13:20:26.080Z,140.63
2017-08-08T13:21:19.638Z,135.00
2017-08-08T13:21:20.235Z,135.00
2017-08-08T13:21:20.834Z,135.00
2017-08-08T13:21:21.426Z,135.00
2017-08-08T13:21:22.029Z,135.00
2017-08-08T13:21:22.626Z,135.00
2017-08-08T13:21:23.227Z,135.00
2017-08-08T13:21:23.831Z,135.00
2017-08-08T13:22:18.310Z,135.00
2017-08-08T13:22:18.907Z,135.00
2017-08-08T13:22:19.503Z,135.00
2017-08-08T13:22:20.106Z,135.00
2017-08-08T13:22:20.703Z,135.00
2017-08-08T13:22:21.302Z,135.00
2017-08-08T13:22:21.912Z,135.00
2017-08-08T13:22:22.521Z,135.00
2017-08-08T13:23:16.987Z,135.00
2017-08-08T13:23:17.588Z,135.00
2017-08-08T13:23:18.182Z,135.00
2017-08-08T13:23:18.784Z,135.00
2017-08-08T13:23:19.382Z,135.00
2017-08-08T13:23:19.983Z,135.00
2017-08-08T13:23:20.606Z,135.00
2017-08-08T13:23:21.193Z,135.00
2017-08-08T13:24:15.665Z,129.38
2017-08-08T13:24:16.316Z,129.38
2017-08-08T13:24:16.857Z,129.38
2017-08-08T13:24:17.459Z,129.38
2017-08-08T13:24:18.054Z,129.38
2017-08-08T13:24:18.657Z,129.38
2017-08-08T13:24:19.258Z,129.38
2017-08-08T13:24:19.858Z,129.38
2017-08-08T13:25:14.892Z,129.38
2017-08-08T13:25:15.453Z,129.38
2017-08-08T13:25:16.049Z,129.38
2017-08-08T13:25:16.646Z,129.38
2017-08-08T13:25:17.249Z,129.38
2017-08-08T13:25:17.853Z,129.38
2017-08-08T13:25:18.457Z,129.38
2017-08-08T13:26:11.987Z,123.75
2017-08-08T13:26:12.591Z,123.75
2017-08-08T13:26:13.186Z,123.75
2017-08-08T13:26:13.782Z,123.75
2017-08-08T13:26:14.391Z,123.75
2017-08-08T13:26:14.986Z,123.75
2017-08-08T13:26:15.586Z,123.75
2017-08-08T13:26:16.187Z,123.75
2017-08-08T13:27:09.642Z,129.38
2017-08-08T13:27:10.234Z,129.38
2017-08-08T13:27:10.837Z,129.38
2017-08-08T13:27:11.433Z,129.38
2017-08-08T13:27:12.038Z,129.38
2017-08-08T13:27:12.639Z,129.38
2017-08-08T13:27:13.237Z,129.38
2017-08-08T13:27:13.834Z,129.38
2017-08-08T13:28:08.316Z,129.38
2017-08-08T13:28:08.921Z,129.38
2017-08-08T13:28:09.514Z,129.38
2017-08-08T13:28:10.117Z,129.38
2017-08-08T13:28:10.712Z,129.38
2017-08-08T13:28:11.314Z,129.38
2017-08-08T13:28:11.913Z,129.38
2017-08-08T13:28:12.509Z,129.38
2017-08-08T13:29:06.890Z,135.00
2017-08-08T13:29:07.485Z,135.00
2017-08-08T13:29:08.091Z,135.00
2017-08-08T13:29:08.691Z,135.00
2017-08-08T13:29:09.290Z,135.00
2017-08-08T13:29:09.897Z,135.00
2017-08-08T13:29:10.491Z,135.00
2017-08-08T13:29:11.085Z,135.00
2017-08-08T13:30:08.532Z,129.38
2017-08-08T13:30:09.135Z,129.38
2017-08-08T13:30:09.734Z,129.38
2017-08-08T15:32:05.510Z,73.13
2017-08-08T15:32:06.076Z,73.13
2017-08-08T15:32:06.672Z,67.50
2017-08-08T15:32:07.277Z,61.88
2017-08-08T15:32:07.875Z,67.50
2017-08-08T15:32:08.469Z,73.13
2017-08-08T15:32:09.077Z,67.50
2017-08-08T15:33:02.619Z,67.50
2017-08-08T15:33:03.211Z,73.13
2017-08-08T15:33:04.598Z,73.13
2017-08-08T15:33:05.110Z,61.88
2017-08-08T15:33:05.708Z,56.25
2017-08-08T15:33:06.307Z,61.88
2017-08-08T15:33:06.913Z,61.88
2017-08-08T15:34:01.423Z,95.63
2017-08-08T15:34:02.000Z,90.00
2017-08-08T15:34:02.588Z,90.00
2017-08-08T15:34:03.187Z,90.00
2017-08-08T15:34:03.792Z,90.00
2017-08-08T15:34:04.394Z,90.00
2017-08-08T15:34:04.989Z,90.00
2017-08-08T15:34:05.585Z,90.00
2017-08-08T15:35:00.073Z,78.75
2017-08-08T15:35:00.667Z,78.75
2017-08-08T15:35:01.290Z,78.75
2017-08-08T15:35:01.873Z,78.75
2017-08-08T15:35:02.461Z,78.75
2017-08-08T15:35:03.070Z,78.75
2017-08-08T15:35:03.665Z,78.75
2017-08-08T15:35:04.269Z,78.75
2017-08-08T15:35:57.721Z,39.38
2017-08-08T15:35:58.320Z,39.38
2017-08-08T15:35:58.923Z,45.00
2017-08-08T15:35:59.523Z,50.63
2017-08-08T15:36:00.125Z,45.00
2017-08-08T15:36:00.714Z,45.00
2017-08-08T15:36:01.326Z,45.00
2017-08-08T15:36:01.918Z,45.00
2017-08-08T15:36:56.394Z,73.13
2017-08-08T15:36:56.999Z,73.13
2017-08-08T15:36:57.595Z,73.13
2017-08-08T15:36:58.194Z,73.13
2017-08-08T15:36:58.795Z,73.13
2017-08-08T15:36:59.391Z,73.13
2017-08-08T15:36:59.994Z,73.13
2017-08-08T15:37:00.611Z,73.13
2017-08-08T15:38:31.845Z,56.25
2017-08-08T15:38:32.432Z,56.25
2017-08-08T15:38:33.061Z,56.25
2017-08-08T15:38:33.633Z,56.25
2017-08-08T15:38:34.236Z,56.25
2017-08-08T15:38:34.835Z,56.25
2017-08-08T15:38:35.433Z,56.25
2017-08-08T15:38:36.033Z,56.25
2017-08-08T15:39:29.520Z,78.75
2017-08-08T15:39:30.128Z,78.75
2017-08-08T15:39:30.698Z,73.13
2017-08-08T15:39:31.841Z,67.50
2017-08-08T15:39:31.915Z,61.88
2017-08-08T15:39:32.488Z,61.88
2017-08-08T15:39:33.123Z,61.88
2017-08-08T15:39:33.682Z,61.88
2017-08-08T15:40:28.162Z,101.25
2017-08-08T15:40:28.775Z,101.25
2017-08-08T15:40:29.364Z,101.25
2017-08-08T15:40:29.969Z,101.25
2017-08-08T15:40:30.563Z,101.25
2017-08-08T15:40:31.165Z,101.25
2017-08-08T15:40:31.764Z,101.25
2017-08-08T15:40:32.363Z,101.25
2017-08-08T15:41:25.817Z,101.25
2017-08-08T15:41:26.413Z,101.25
2017-08-08T15:41:27.012Z,101.25
2017-08-08T15:41:27.612Z,101.25
2017-08-08T15:41:28.212Z,95.63
2017-08-08T15:41:28.813Z,95.63
2017-08-08T15:42:25.926Z,140.63
2017-08-08T15:42:26.524Z,140.63
2017-08-08T15:42:27.121Z,140.63
2017-08-08T15:42:27.724Z,140.63
2017-08-08T15:42:28.323Z,140.63
2017-08-08T15:42:28.924Z,140.63
2017-08-08T15:42:29.523Z,140.63
2017-08-08T15:43:23.992Z,129.38
2017-08-08T15:43:24.582Z,129.38
2017-08-08T15:43:25.181Z,129.38
2017-08-08T15:43:25.785Z,129.38
2017-08-08T15:43:26.379Z,129.38
2017-08-08T15:43:26.980Z,129.38
2017-08-08T15:43:27.590Z,129.38
2017-08-08T15:43:28.183Z,129.38
2017-08-08T15:44:21.636Z,106.88
2017-08-08T15:44:22.237Z,106.88
2017-08-08T15:44:22.832Z,106.88
2017-08-08T15:44:23.441Z,106.88
2017-08-08T15:44:24.036Z,106.88
2017-08-08T15:44:24.636Z,106.88
2017-08-08T15:44:25.237Z,106.88
2017-08-08T15:44:25.836Z,106.88
2017-08-08T15:45:20.342Z,84.38
2017-08-08T15:45:20.910Z,84.38
2017-08-08T15:45:21.514Z,84.38
2017-08-08T15:45:22.114Z,84.38
2017-08-08T15:45:22.708Z,84.38
2017-08-08T15:45:23.315Z,84.38
2017-08-08T15:45:23.909Z,84.38
2017-08-08T15:45:24.509Z,84.38
2017-08-08T15:46:21.047Z,73.13
2017-08-08T15:46:21.636Z,73.13
2017-08-08T15:46:22.231Z,73.13
2017-08-08T15:47:16.752Z,67.50
2017-08-08T15:47:17.449Z,73.13
2017-08-08T15:47:17.944Z,78.75
2017-08-08T15:47:18.546Z,78.75
2017-08-08T15:47:19.141Z,78.75
2017-08-08T15:47:19.740Z,78.75
2017-08-08T15:47:20.344Z,78.75
2017-08-08T15:47:20.937Z,78.75
2017-08-08T15:48:14.394Z,78.75
2017-08-08T15:48:15.010Z,78.75
2017-08-08T15:48:15.597Z,78.75
2017-08-08T15:48:16.201Z,78.75
2017-08-08T15:48:16.789Z,78.75
2017-08-08T15:48:17.397Z,78.75
2017-08-08T15:48:17.993Z,78.75
2017-08-08T15:48:18.599Z,78.75
2017-08-08T15:49:25.563Z,56.25
2017-08-08T15:49:26.159Z,56.25
2017-08-08T15:50:34.299Z,90.00
2017-08-08T15:50:34.886Z,90.00
2017-08-08T15:52:47.188Z,56.25
2017-08-08T15:52:47.783Z,56.25
2017-08-08T15:52:48.388Z,56.25
2017-08-08T15:52:48.988Z,56.25
2017-08-08T15:52:49.583Z,56.25
2017-08-08T15:52:50.181Z,56.25
2017-08-08T15:52:50.784Z,56.25
2017-08-08T15:52:51.382Z,56.25
2017-08-08T15:52:51.980Z,56.25
2017-08-08T15:52:52.584Z,56.25
2017-08-08T15:52:53.186Z,56.25
2017-08-08T15:52:53.784Z,56.25
2017-08-08T15:53:48.839Z,56.25
2017-08-08T15:53:49.435Z,56.25
2017-08-08T15:53:50.035Z,56.25
2017-08-08T15:53:50.631Z,56.25
2017-08-08T15:53:51.235Z,56.25
2017-08-08T15:53:51.834Z,56.25
2017-08-08T15:53:52.431Z,56.25
2017-08-08T15:53:53.033Z,56.25
2017-08-08T15:54:47.008Z,67.50
2017-08-08T15:54:47.609Z,67.50
2017-08-08T15:54:48.287Z,67.50
2017-08-08T15:54:48.968Z,67.50
2017-08-08T15:54:49.401Z,67.50
2017-08-08T15:54:49.994Z,73.13
2017-08-08T15:54:50.602Z,73.13
2017-08-08T15:55:48.577Z,112.50
2017-08-08T15:55:49.145Z,112.50
2017-08-08T15:55:49.744Z,112.50
2017-08-08T15:55:50.338Z,112.50
2017-08-08T15:55:50.945Z,112.50
2017-08-08T15:55:51.537Z,112.50
2017-08-08T15:55:52.144Z,112.50
2017-08-08T15:57:09.955Z,140.63
2017-08-08T15:57:10.554Z,140.63
2017-08-08T15:57:11.155Z,140.63
2017-08-08T15:57:11.750Z,140.63
2017-08-08T15:57:12.349Z,140.63
2017-08-08T15:57:12.947Z,140.63
2017-08-08T15:57:13.547Z,140.63
2017-08-08T15:57:14.147Z,140.63
2017-08-08T15:57:14.778Z,140.63
2017-08-08T15:57:15.352Z,140.63
2017-08-08T15:57:15.948Z,140.63
2017-08-08T15:57:16.551Z,140.63
2017-08-08T15:57:17.155Z,140.63
2017-08-08T15:57:17.754Z,140.63
2017-08-08T15:57:18.353Z,140.63
2017-08-08T15:57:18.956Z,140.63
2017-08-08T15:57:19.554Z,140.63
2017-08-08T15:58:14.871Z,129.38
2017-08-08T15:58:15.487Z,129.38
2017-08-08T15:58:16.073Z,129.38
2017-08-08T15:58:16.675Z,129.38
2017-08-08T15:58:17.267Z,129.38
2017-08-08T15:58:17.871Z,129.38
2017-08-08T15:58:18.478Z,129.38
2017-08-08T15:59:12.022Z,56.25
2017-08-08T15:59:12.618Z,50.63
2017-08-08T15:59:13.216Z,50.63
2017-08-08T15:59:13.826Z,50.63
2017-08-08T15:59:14.463Z,56.25
2017-08-08T15:59:15.043Z,67.50
2017-08-08T15:59:15.616Z,73.13
2017-08-08T15:59:16.210Z,73.13
2017-08-08T16:00:09.770Z,90.00
2017-08-08T16:00:10.368Z,84.38
2017-08-08T16:00:10.971Z,90.00
2017-08-08T16:00:11.570Z,84.38
2017-08-08T16:00:12.180Z,84.38
2017-08-08T16:00:12.768Z,78.75
2017-08-08T16:00:13.368Z,84.38
2017-08-08T16:00:13.972Z,78.75
2017-08-08T16:01:08.535Z,78.75
2017-08-08T16:01:09.042Z,84.38
2017-08-08T16:01:09.646Z,84.38
2017-08-08T16:01:10.245Z,84.38
2017-08-08T16:01:10.847Z,84.38
2017-08-08T16:01:11.438Z,84.38
2017-08-08T16:01:12.045Z,84.38
2017-08-08T16:01:12.658Z,84.38
2017-08-08T16:02:06.100Z,56.25
2017-08-08T16:02:06.693Z,56.25
2017-08-08T16:02:07.294Z,56.25
2017-08-08T16:02:08.020Z,61.88
2017-08-08T16:02:08.500Z,56.25
2017-08-08T16:02:09.095Z,56.25
2017-08-08T16:02:09.690Z,67.50
2017-08-08T16:02:10.297Z,61.88
2017-08-08T16:03:04.000Z,33.75
2017-08-08T16:03:04.455Z,28.13
2017-08-08T16:03:05.050Z,33.75
2017-08-08T16:03:05.645Z,33.75
2017-08-08T16:03:06.249Z,39.38
2017-08-08T16:03:06.852Z,39.38
2017-08-08T16:03:07.447Z,39.38
2017-08-08T16:03:08.200Z,39.38
2017-08-08T16:04:03.049Z,22.50
2017-08-08T16:04:03.671Z,16.88
2017-08-08T16:04:04.260Z,28.13
2017-08-08T16:04:04.830Z,33.75
2017-08-08T16:04:05.458Z,33.75
2017-08-08T16:05:19.530Z,45.00
2017-08-08T16:05:20.127Z,45.00
2017-08-08T16:05:20.727Z,50.63
2017-08-08T16:05:21.331Z,50.63
2017-08-08T16:05:21.929Z,50.63
2017-08-08T16:05:22.527Z,50.63
2017-08-08T16:05:23.130Z,50.63
2017-08-08T16:06:16.707Z,73.13
2017-08-08T16:06:17.270Z,73.13
2017-08-08T16:06:17.873Z,73.13
2017-08-08T16:06:18.467Z,73.13
2017-08-08T16:06:19.067Z,73.13
2017-08-08T16:06:19.670Z,73.13
2017-08-08T16:06:20.268Z,73.13
2017-08-08T16:06:20.870Z,73.13
2017-08-08T16:07:15.353Z,61.88
2017-08-08T16:07:15.947Z,61.88
2017-08-08T16:07:16.544Z,61.88
2017-08-08T16:07:17.147Z,61.88
2017-08-08T16:07:17.745Z,61.88
2017-08-08T16:07:18.344Z,61.88
2017-08-08T16:07:18.941Z,61.88
2017-08-08T16:07:19.547Z,61.88
2017-08-08T16:08:13.018Z,45.00
2017-08-08T16:08:13.641Z,45.00
2017-08-08T16:08:14.194Z,45.00
2017-08-08T16:08:14.801Z,45.00
2017-08-08T16:08:15.397Z,45.00
2017-08-08T16:08:15.999Z,45.00
2017-08-08T16:08:16.593Z,45.00
2017-08-08T16:08:17.196Z,45.00
2017-08-08T16:09:10.649Z,39.38
2017-08-08T16:09:11.251Z,39.38
2017-08-08T16:09:11.849Z,39.38
2017-08-08T16:09:12.445Z,39.38
2017-08-08T16:09:13.047Z,39.38
2017-08-08T16:09:13.652Z,39.38
2017-08-08T16:09:14.251Z,39.38
2017-08-08T16:09:14.845Z,39.38
2017-08-08T16:10:08.308Z,39.38
2017-08-08T16:10:08.902Z,39.38
2017-08-08T16:10:09.501Z,39.38
2017-08-08T16:10:10.100Z,39.38
2017-08-08T16:10:10.700Z,39.38
2017-08-08T16:10:11.301Z,39.38
2017-08-08T16:10:11.898Z,39.38
2017-08-08T16:10:12.506Z,39.38
2017-08-08T16:11:06.975Z,39.38
2017-08-08T16:11:07.572Z,39.38
2017-08-08T16:11:08.175Z,39.38
2017-08-08T16:11:08.778Z,39.38
2017-08-08T16:11:09.378Z,39.38
2017-08-08T16:11:09.977Z,39.38
2017-08-08T16:11:10.577Z,39.38
2017-08-08T16:11:11.173Z,39.38
2017-08-08T16:12:06.199Z,39.38
2017-08-08T16:12:06.763Z,39.38
2017-08-08T16:12:07.364Z,39.38
2017-08-08T16:12:07.960Z,39.38
2017-08-08T16:12:08.562Z,39.38
2017-08-08T16:12:09.164Z,39.38
2017-08-08T16:12:09.760Z,39.38
2017-08-08T16:13:03.307Z,45.00
2017-08-08T16:13:03.903Z,45.00
2017-08-08T16:13:04.507Z,45.00
2017-08-08T16:13:05.103Z,45.00
2017-08-08T16:13:05.708Z,45.00
2017-08-08T16:13:06.303Z,45.00
2017-08-08T16:13:06.903Z,45.00
2017-08-08T16:13:07.502Z,45.00
2017-08-08T16:14:01.061Z,50.63
2017-08-08T16:14:01.662Z,50.63
2017-08-08T16:14:02.258Z,50.63
2017-08-08T16:14:02.854Z,50.63
2017-08-08T16:14:03.466Z,50.63
2017-08-08T16:14:04.060Z,50.63
2017-08-08T16:14:04.659Z,50.63
2017-08-08T16:14:05.254Z,56.25
2017-08-08T16:14:58.820Z,61.88
2017-08-08T16:14:59.416Z,61.88
2017-08-08T16:15:00.012Z,61.88
2017-08-08T16:15:00.608Z,61.88
2017-08-08T16:15:01.213Z,61.88
2017-08-08T16:15:01.816Z,61.88
2017-08-08T16:15:02.413Z,61.88
2017-08-08T16:15:03.011Z,61.88
2017-08-08T16:15:57.490Z,84.38
2017-08-08T16:15:58.083Z,84.38
2017-08-08T16:15:58.690Z,84.38
2017-08-08T16:15:59.282Z,84.38
2017-08-08T16:15:59.891Z,84.38
2017-08-08T16:16:00.492Z,84.38
2017-08-08T16:16:01.090Z,84.38
2017-08-08T16:16:01.687Z,84.38
2017-08-08T16:16:55.245Z,95.63
2017-08-08T16:16:55.843Z,95.63
2017-08-08T16:16:56.442Z,95.63
2017-08-08T16:16:57.043Z,95.63
2017-08-08T16:16:57.645Z,95.63
2017-08-08T16:16:58.244Z,90.00
2017-08-08T16:16:58.838Z,90.00
2017-08-08T16:16:59.441Z,90.00
2017-08-08T16:17:52.921Z,84.38